航空気象通報

ウインドサーファーのための航空気象通報による風予報です。

5/13-5/15の航空気象通報

2017年05月13日 23時02分10秒 | TAF
羽田空港
TAF RJTT 131105Z 1312/1418 34012KT 8000 FEW010 BKN012
BECMG 1400/1403 10008KT
日本時間13日21時-14日09時:340度から12ノットの風
09-12時:風が変化
12時-15日03時:100度から8ノットの風


静岡空港
TAF RJNS 131107Z 1312/1418 26010KT 9999 FEW010 SCT020
BECMG 1318/1320 01005KT
TEMPO 1318/1322 4000 BR FEW005 BKN008
BECMG 1400/1403 16008KT
BECMG 1409/1412 34004KT
TEMPO 1415/1418 4000 BR FEW005 BKN008
日本時間13日21時-14日03時:260度から10ノットの風
03-05時:風が変化
05-09時:010度から5ノットの風
09-12時:風が変化
12-18時:160度から8ノットの風
18-21時:風が変化
21時-15日03時:340度から4ノットの風

但し、15日00-03時の間:ときどき

福岡空港
TAF RJFF 131106Z 1312/1418 15008KT 9999 FEW030
BECMG 1322/1400 33009KT
BECMG 1412/1415 16006KT
日本時間13日21時-14日07時:150度から8ノットの風
07-09時:風が変化
09-21時:330度から9ノットの風
21-24時:風が変化
15日00-03時:160度から6ノットの風


那覇空港
TAF ROAH 131109Z 1312/1418 22006KT 9999 FEW008 BKN015
BECMG 1400/1403 02006KT
TEMPO 1403/1406 4000 SHRA FEW008 BKN015 FEW020CB
BECMG 1412/1415 12004KT
日本時間13日21時-14日09時:220度から6ノットの風
09-12時:風が変化
12-21時:020度から6ノットの風
21-24時:風が変化
15日00-03時:120度から4ノットの風

但し、14日12-15時の間:ときどき

石垣空港
TAF ROIG 131113Z 1312/1418 04004KT 9999 FEW010 BKN025
日本時間13日21時-15日03時:040度から4ノットの風


マウイのカフルイ空港
PHOG 131123Z 1312/1412 06015G24KT P6SM VCSH SCT035 SCT060 AMD LTD TO VIS AND WIND TIL 131600
ハワイ時間13日02時-14日02時:060度から15ノット、突風24ノット


サイパン空港
TAF PGSN 131132Z 1312/1412 09011KT P6SM VCSH FEW020 SCT050 BKN110
マリアナ時間13日22時-14日22時:090度から11ノットの風

ジャンル:
お天気
コメント   この記事についてブログを書く
この記事をはてなブックマークに追加
« 5/12-5/14の航空気象通報 | トップ | 5/14-5/16の航空気象通報 »
最近の画像もっと見る

コメントを投稿

ブログ作成者から承認されるまでコメントは反映されません。

コメント利用規約に同意の上コメント投稿を行ってください。

数字4桁を入力し、投稿ボタンを押してください。

あわせて読む

トラックバック

この記事のトラックバック  Ping-URL
ブログ作成者から承認されるまでトラックバックは反映されません。
  • 30日以上前の記事に対するトラックバックは受け取らないよう設定されております。
  • 送信元の記事内容が半角英数のみのトラックバックは受け取らないよう設定されております。
  • このブログへのリンクがない記事からのトラックバックは受け取らないよう設定されております。
  • ※ブログ管理者のみ、編集画面で設定の変更が可能です。